createdAt,value
2023-05-01T00:01:12.257Z,6.92
2023-05-01T00:04:17.464Z,7.00
2023-05-01T00:07:21.016Z,7.00
2023-05-01T00:10:24.726Z,7.04
2023-05-01T00:13:28.274Z,6.94
2023-05-01T00:16:31.883Z,6.89
2023-05-01T00:19:35.470Z,6.87
2023-05-01T00:22:39.384Z,6.80
2023-05-01T00:25:42.644Z,6.76
2023-05-01T00:28:46.161Z,6.80
2023-05-01T00:31:49.399Z,6.77
2023-05-01T00:34:53.054Z,6.63
2023-05-01T00:37:56.382Z,6.61
2023-05-01T00:40:59.900Z,6.63
2023-05-01T00:44:03.417Z,6.51
2023-05-01T00:47:07.046Z,6.50
2023-05-01T00:50:10.755Z,6.59
2023-05-01T00:53:14.950Z,6.62
2023-05-01T00:56:18.199Z,6.61
2023-05-01T00:59:22.475Z,6.58
2023-05-01T01:02:27.471Z,6.30
2023-05-01T01:05:35.868Z,6.45
2023-05-01T01:09:13.248Z,6.36
2023-05-01T01:12:27.416Z,6.29
2023-05-01T01:15:35.054Z,6.33
2023-05-01T01:18:53.277Z,6.39
2023-05-01T01:22:04.227Z,6.41
2023-05-01T01:25:23.584Z,6.48
2023-05-01T01:28:39.163Z,6.59
2023-05-01T01:32:11.085Z,6.63
2023-05-01T01:35:27.396Z,6.59
2023-05-01T01:38:40.651Z,6.49
2023-05-01T01:41:49.673Z,6.39
2023-05-01T01:44:56.256Z,6.29
2023-05-01T01:48:01.210Z,6.23
2023-05-01T01:51:15.017Z,6.19
2023-05-01T01:54:26.735Z,6.19
2023-05-01T01:57:31.635Z,6.15
2023-05-01T02:00:37.109Z,6.14
2023-05-01T02:03:42.145Z,6.23
2023-05-01T02:06:47.210Z,6.26
2023-05-01T02:09:53.622Z,6.33
2023-05-01T02:12:59.405Z,6.38
2023-05-01T02:16:04.302Z,6.48
2023-05-01T02:19:07.755Z,6.58
2023-05-01T02:22:12.504Z,6.66
2023-05-01T02:25:16.948Z,6.66
2023-05-01T02:28:24.634Z,6.58
2023-05-01T02:31:28.123Z,6.47
2023-05-01T02:34:35.038Z,6.42
2023-05-01T02:37:39.128Z,6.38
2023-05-01T02:40:47.255Z,6.33
2023-05-01T02:44:01.911Z,6.27
2023-05-01T02:47:07.864Z,6.28
2023-05-01T02:50:15.136Z,6.22
2023-05-01T02:53:19.674Z,6.16
2023-05-01T02:56:24.541Z,6.03
2023-05-01T02:59:27.802Z,5.93
2023-05-01T03:02:32.388Z,5.84
2023-05-01T03:05:35.570Z,5.70
2023-05-01T03:08:39.203Z,5.69
2023-05-01T03:11:42.326Z,5.50
2023-05-01T03:14:45.798Z,5.60
2023-05-01T03:17:49.145Z,5.55
2023-05-01T03:20:53.855Z,5.48
2023-05-01T03:23:57.589Z,5.45
2023-05-01T03:27:01.036Z,5.46
2023-05-01T03:30:04.896Z,5.45
2023-05-01T03:33:08.877Z,5.38
2023-05-01T03:36:12.561Z,5.32
2023-05-01T03:39:15.944Z,5.36
2023-05-01T03:42:32.621Z,5.28
2023-05-01T03:45:36.515Z,5.24
2023-05-01T03:48:39.891Z,5.22
2023-05-01T03:51:43.411Z,5.15
2023-05-01T03:54:47.017Z,5.16
2023-05-01T03:57:52.777Z,5.14
2023-05-01T04:01:00.545Z,5.19
2023-05-01T04:04:04.226Z,5.21
2023-05-01T04:07:07.459Z,5.34
2023-05-01T04:10:11.075Z,5.49
2023-05-01T04:13:15.700Z,5.55
2023-05-01T04:16:21.280Z,5.59
2023-05-01T04:19:25.847Z,5.64
2023-05-01T04:22:31.858Z,5.75
2023-05-01T04:25:34.981Z,5.99
2023-05-01T04:28:39.681Z,6.12
2023-05-01T04:31:44.967Z,6.11
2023-05-01T04:34:49.496Z,6.15
2023-05-01T04:37:53.138Z,6.20
2023-05-01T04:40:57.519Z,6.37
2023-05-01T04:44:01.128Z,6.49
2023-05-01T04:47:04.917Z,6.71
2023-05-01T04:50:09.083Z,6.88
2023-05-01T04:53:12.580Z,7.12
2023-05-01T04:56:16.206Z,7.49
2023-05-01T04:59:20.564Z,7.75
2023-05-01T05:02:24.862Z,8.01
2023-05-01T05:05:28.556Z,8.29
2023-05-01T05:08:31.709Z,8.45
2023-05-01T05:11:36.525Z,8.77
2023-05-01T05:14:40.152Z,8.81
2023-05-01T05:17:43.551Z,8.96
2023-05-01T05:20:47.612Z,9.21
2023-05-01T05:23:52.671Z,9.35
2023-05-01T05:26:55.837Z,9.42
2023-05-01T05:30:00.316Z,9.52
2023-05-01T05:33:03.713Z,9.93
2023-05-01T05:36:07.628Z,10.25
2023-05-01T05:39:11.931Z,10.69
2023-05-01T05:42:15.624Z,10.89
2023-05-01T05:45:18.752Z,11.05
2023-05-01T05:48:22.514Z,11.34
2023-05-01T05:51:25.891Z,11.68
2023-05-01T05:54:30.060Z,11.82
2023-05-01T05:57:38.601Z,11.95
2023-05-01T06:00:42.430Z,12.00
2023-05-01T06:03:46.075Z,12.21
2023-05-01T06:06:52.428Z,12.54
2023-05-01T06:09:56.170Z,12.59
2023-05-01T06:13:04.724Z,12.64
2023-05-01T06:16:17.093Z,13.02
2023-05-01T06:19:20.310Z,13.09
2023-05-01T06:22:27.490Z,13.53
2023-05-01T06:25:34.394Z,13.70
2023-05-01T06:28:37.774Z,13.86
2023-05-01T06:31:41.124Z,14.17
2023-05-01T06:34:44.711Z,14.36
2023-05-01T06:37:47.922Z,14.54
2023-05-01T06:40:51.684Z,14.64
2023-05-01T06:43:55.939Z,14.79
2023-05-01T06:47:01.772Z,14.85
2023-05-01T06:50:05.871Z,15.01
2023-05-01T06:53:10.014Z,15.11
2023-05-01T06:56:13.079Z,15.35
2023-05-01T06:59:16.586Z,15.43
2023-05-01T07:02:19.865Z,15.78
2023-05-01T07:05:23.981Z,15.83
2023-05-01T07:08:28.347Z,16.02
2023-05-01T07:11:33.851Z,15.92
2023-05-01T07:14:36.918Z,16.40
2023-05-01T07:17:40.383Z,16.76
2023-05-01T07:20:43.694Z,16.83
2023-05-01T07:23:47.198Z,17.35
2023-05-01T07:26:50.277Z,17.04
2023-05-01T07:29:56.124Z,17.12
2023-05-01T07:32:59.559Z,17.12
2023-05-01T07:36:04.659Z,16.75
2023-05-01T07:39:08.141Z,17.12
2023-05-01T07:42:12.258Z,17.55
2023-05-01T07:45:15.507Z,17.42
2023-05-01T07:48:19.025Z,17.48
2023-05-01T07:51:27.384Z,17.84
2023-05-01T07:54:31.359Z,17.91
2023-05-01T07:57:35.800Z,17.88
2023-05-01T08:00:39.362Z,17.76
2023-05-01T08:03:43.911Z,17.90
2023-05-01T08:06:47.066Z,18.40
2023-05-01T08:09:51.493Z,18.13
2023-05-01T08:12:54.611Z,18.22
2023-05-01T08:16:02.819Z,18.39
2023-05-01T08:19:05.939Z,18.17
2023-05-01T08:22:09.346Z,18.47
2023-05-01T08:25:12.468Z,18.54
2023-05-01T08:28:15.922Z,18.94
2023-05-01T08:31:19.669Z,19.03
2023-05-01T08:34:23.067Z,19.15
2023-05-01T08:37:26.874Z,19.31
2023-05-01T08:40:35.980Z,19.52
2023-05-01T08:43:40.983Z,19.32
2023-05-01T08:47:08.431Z,19.76
2023-05-01T08:50:14.412Z,19.79
2023-05-01T08:53:19.310Z,20.03
2023-05-01T08:56:23.748Z,20.17
2023-05-01T08:59:29.018Z,20.35
2023-05-01T09:02:35.865Z,19.95
2023-05-01T09:05:39.733Z,20.07
2023-05-01T09:08:43.182Z,20.05
2023-05-01T09:11:47.839Z,19.84
2023-05-01T09:14:56.007Z,20.02
2023-05-01T09:18:03.588Z,20.07
2023-05-01T09:21:07.841Z,20.46
2023-05-01T09:24:11.303Z,20.23
2023-05-01T09:27:16.190Z,20.27
2023-05-01T09:30:36.678Z,20.26
2023-05-01T09:33:55.839Z,20.65
2023-05-01T09:36:59.639Z,20.64
2023-05-01T09:40:13.608Z,20.52
2023-05-01T09:43:30.447Z,20.69
2023-05-01T09:46:43.050Z,20.74
2023-05-01T09:49:50.428Z,20.69
2023-05-01T09:52:53.511Z,20.17
2023-05-01T09:56:03.366Z,20.32
2023-05-01T09:59:17.254Z,20.48
2023-05-01T10:02:29.830Z,20.73
2023-05-01T10:05:44.619Z,20.55
2023-05-01T10:08:51.280Z,21.04
2023-05-01T10:11:57.841Z,20.96
2023-05-01T10:15:07.759Z,21.77
2023-05-01T10:18:18.423Z,20.98
2023-05-01T10:21:21.360Z,21.37
2023-05-01T10:24:25.853Z,21.00
2023-05-01T10:27:28.619Z,21.70
2023-05-01T10:30:32.575Z,21.74
2023-05-01T10:33:36.048Z,21.53
2023-05-01T10:36:51.970Z,21.72
2023-05-01T10:39:54.974Z,22.02
2023-05-01T10:43:19.643Z,22.12
2023-05-01T10:46:24.329Z,22.03
2023-05-01T10:50:04.539Z,21.51
2023-05-01T10:53:11.926Z,22.67
2023-05-01T10:56:25.475Z,22.71
2023-05-01T11:00:01.414Z,22.76
2023-05-01T11:03:24.457Z,22.70
2023-05-01T11:06:28.032Z,22.89
2023-05-01T11:09:41.821Z,22.91
2023-05-01T11:12:52.000Z,22.79
2023-05-01T11:15:55.606Z,22.52
2023-05-01T11:18:58.772Z,22.51
2023-05-01T11:22:02.559Z,23.24
2023-05-01T11:25:24.888Z,23.10
2023-05-01T11:28:31.127Z,23.13
2023-05-01T11:31:34.808Z,23.89
2023-05-01T11:34:38.848Z,23.80
2023-05-01T11:37:55.844Z,23.88
2023-05-01T11:41:01.420Z,23.42
2023-05-01T11:44:04.551Z,22.99
2023-05-01T11:47:09.273Z,23.24
2023-05-01T11:50:12.967Z,22.95
2023-05-01T11:53:16.791Z,23.25
2023-05-01T11:56:26.488Z,23.93
2023-05-01T11:59:30.983Z,23.94
2023-05-01T12:02:34.583Z,22.64
2023-05-01T12:05:42.508Z,23.66
2023-05-01T12:08:51.268Z,24.00
2023-05-01T12:11:55.223Z,23.91
2023-05-01T12:14:58.999Z,24.25
2023-05-01T12:18:03.913Z,23.79
2023-05-01T12:21:16.195Z,23.75
2023-05-01T12:24:19.825Z,23.86
2023-05-01T12:27:22.900Z,24.40
2023-05-01T12:30:27.969Z,23.76
2023-05-01T12:33:31.848Z,23.90
2023-05-01T12:36:36.506Z,24.19
2023-05-01T12:39:42.356Z,24.13
2023-05-01T12:42:54.728Z,24.92
2023-05-01T12:45:58.513Z,24.43
2023-05-01T12:49:02.009Z,24.35
2023-05-01T12:52:07.898Z,24.22
2023-05-01T12:55:12.757Z,24.37
2023-05-01T12:58:16.951Z,24.83
2023-05-01T13:01:30.235Z,24.69
2023-05-01T13:04:35.352Z,24.55
2023-05-01T13:07:40.352Z,24.36
2023-05-01T13:10:44.760Z,23.88
2023-05-01T13:13:49.918Z,23.67
2023-05-01T13:16:55.128Z,24.00
2023-05-01T13:20:00.790Z,24.33
2023-05-01T13:23:11.027Z,24.53
2023-05-01T13:26:14.433Z,24.58
2023-05-01T13:29:17.820Z,24.39
2023-05-01T13:32:21.396Z,23.80
2023-05-01T13:35:26.269Z,24.32
2023-05-01T13:38:34.462Z,23.96
2023-05-01T13:41:42.505Z,23.84
2023-05-01T13:44:53.572Z,23.70
2023-05-01T13:47:56.798Z,23.55
2023-05-01T13:51:00.376Z,23.42
2023-05-01T13:54:08.262Z,22.66
2023-05-01T13:57:11.787Z,22.72
2023-05-01T14:00:17.884Z,22.95
2023-05-01T14:03:22.512Z,22.82
2023-05-01T14:06:25.657Z,22.29
2023-05-01T14:09:30.407Z,21.99
2023-05-01T14:12:34.102Z,21.45
2023-05-01T14:15:43.907Z,21.05
2023-05-01T14:18:48.184Z,20.77
2023-05-01T14:21:51.543Z,20.88
2023-05-01T14:24:54.789Z,20.80
2023-05-01T14:27:59.652Z,20.65
2023-05-01T14:31:03.455Z,20.55
2023-05-01T14:34:07.184Z,20.73
2023-05-01T14:37:10.279Z,20.58
2023-05-01T14:40:15.115Z,20.47
2023-05-01T14:43:21.735Z,20.52
2023-05-01T14:46:33.310Z,20.37
2023-05-01T14:49:36.694Z,20.55
2023-05-01T14:52:40.120Z,20.64
2023-05-01T14:55:43.656Z,20.60
2023-05-01T14:58:48.485Z,20.51
2023-05-01T15:01:51.564Z,20.44
2023-05-01T15:04:56.723Z,20.38
2023-05-01T15:08:01.260Z,20.49
2023-05-01T15:11:04.961Z,20.46
2023-05-01T15:14:08.112Z,20.51
2023-05-01T15:17:11.435Z,20.67
2023-05-01T15:20:14.746Z,20.63
2023-05-01T15:23:18.232Z,20.54
2023-05-01T15:26:21.581Z,20.44
2023-05-01T15:29:25.083Z,20.16
2023-05-01T15:32:28.397Z,20.05
2023-05-01T15:35:32.014Z,19.94
2023-05-01T15:38:35.031Z,20.02
2023-05-01T15:41:39.154Z,20.17
2023-05-01T15:44:42.629Z,20.24
2023-05-01T15:47:47.740Z,20.12
2023-05-01T15:50:51.410Z,19.99
2023-05-01T15:53:56.451Z,19.91
2023-05-01T15:57:04.551Z,19.75
2023-05-01T16:00:10.720Z,19.67
2023-05-01T16:03:16.723Z,19.65
2023-05-01T16:06:20.135Z,19.60
2023-05-01T16:09:31.949Z,19.47
2023-05-01T16:12:35.228Z,19.36
2023-05-01T16:15:39.324Z,19.24
2023-05-01T16:18:42.484Z,19.15
2023-05-01T16:21:46.148Z,19.10
2023-05-01T16:24:49.461Z,18.96
2023-05-01T16:27:52.831Z,18.87
2023-05-01T16:30:56.024Z,18.72
2023-05-01T16:33:59.533Z,18.60
2023-05-01T16:37:02.750Z,18.55
2023-05-01T16:40:09.482Z,18.49
2023-05-01T16:43:12.994Z,18.46
2023-05-01T16:46:19.603Z,18.35
2023-05-01T16:49:24.191Z,18.17
2023-05-01T16:52:27.585Z,18.05
2023-05-01T16:55:30.613Z,17.92
2023-05-01T16:58:34.082Z,17.74
2023-05-01T17:01:37.523Z,17.69
2023-05-01T17:04:41.072Z,17.59
2023-05-01T17:07:44.198Z,17.44
2023-05-01T17:10:48.951Z,17.35
2023-05-01T17:13:52.741Z,17.23
2023-05-01T17:17:00.049Z,17.04
2023-05-01T17:20:06.867Z,16.87
2023-05-01T17:23:11.934Z,16.71
2023-05-01T17:26:16.843Z,16.56
2023-05-01T17:29:20.702Z,16.50
2023-05-01T17:32:35.823Z,16.57
2023-05-01T17:35:40.247Z,16.45
2023-05-01T17:38:44.305Z,16.20
2023-05-01T17:41:50.138Z,15.97
2023-05-01T17:44:53.823Z,15.78
2023-05-01T17:47:59.245Z,15.36
2023-05-01T17:51:02.920Z,15.47
2023-05-01T17:54:08.415Z,15.28
2023-05-01T17:57:11.712Z,15.09
2023-05-01T18:00:16.392Z,14.83
2023-05-01T18:03:20.910Z,14.61
2023-05-01T18:06:25.501Z,14.44
2023-05-01T18:09:29.857Z,14.31
2023-05-01T18:12:33.941Z,14.15
2023-05-01T18:15:38.127Z,13.81
2023-05-01T18:18:44.996Z,13.79
2023-05-01T18:21:48.221Z,13.60
2023-05-01T18:24:52.128Z,13.40
2023-05-01T18:27:56.539Z,13.26
2023-05-01T18:31:00.568Z,13.08
2023-05-01T18:34:09.140Z,12.98
2023-05-01T18:37:13.272Z,12.72
2023-05-01T18:40:16.916Z,12.67
2023-05-01T18:43:21.224Z,12.51
2023-05-01T18:46:24.868Z,12.54
2023-05-01T18:49:29.876Z,12.29
2023-05-01T18:52:33.423Z,12.05
2023-05-01T18:55:37.653Z,12.32
2023-05-01T18:58:41.596Z,12.14
2023-05-01T19:01:46.977Z,12.01
2023-05-01T19:04:57.571Z,11.91
2023-05-01T19:08:06.000Z,11.90
2023-05-01T19:11:09.792Z,11.79
2023-05-01T19:14:14.604Z,11.55
2023-05-01T19:17:19.845Z,11.42
2023-05-01T19:20:25.865Z,11.64
2023-05-01T19:23:31.479Z,11.21
2023-05-01T19:26:35.990Z,11.58
2023-05-01T19:29:41.416Z,11.53
2023-05-01T19:32:47.529Z,11.42
2023-05-01T19:35:51.416Z,11.30
2023-05-01T19:38:56.154Z,11.16
2023-05-01T19:42:01.540Z,11.17
2023-05-01T19:45:07.001Z,11.06
2023-05-01T19:48:10.625Z,10.98
2023-05-01T19:51:17.615Z,10.81
2023-05-01T19:54:22.954Z,10.91
2023-05-01T19:57:26.948Z,10.77
2023-05-01T20:00:31.776Z,10.66
2023-05-01T20:03:35.814Z,10.58
2023-05-01T20:06:41.849Z,10.25
2023-05-01T20:09:47.933Z,10.44
2023-05-01T20:12:52.168Z,10.40
2023-05-01T20:15:56.688Z,10.38
2023-05-01T20:19:01.613Z,10.10
2023-05-01T20:22:07.362Z,10.26
2023-05-01T20:25:11.343Z,10.14
2023-05-01T20:28:18.991Z,10.10
2023-05-01T20:31:22.294Z,10.14
2023-05-01T20:34:26.353Z,9.85
2023-05-01T20:37:30.906Z,10.01
2023-05-01T20:40:36.592Z,9.87
2023-05-01T20:43:41.415Z,9.87
2023-05-01T20:46:45.229Z,9.91
2023-05-01T20:49:48.611Z,9.85
2023-05-01T20:52:53.581Z,9.74
2023-05-01T20:55:56.759Z,9.68
2023-05-01T20:59:01.849Z,9.57
2023-05-01T21:02:05.431Z,9.59
2023-05-01T21:05:11.465Z,9.51
2023-05-01T21:08:15.296Z,9.36
2023-05-01T21:11:19.716Z,9.39
2023-05-01T21:14:22.780Z,9.56
2023-05-01T21:17:26.911Z,9.54
2023-05-01T21:20:32.910Z,9.72
2023-05-01T21:23:36.407Z,9.73
2023-05-01T21:26:39.608Z,9.79
2023-05-01T21:29:43.248Z,9.81
2023-05-01T21:32:46.468Z,9.76
2023-05-01T21:35:51.158Z,9.73
2023-05-01T21:38:54.344Z,9.65
2023-05-01T21:41:58.845Z,9.61
2023-05-01T21:45:08.055Z,9.64
2023-05-01T21:48:15.214Z,9.69
2023-05-01T21:51:28.620Z,9.66
2023-05-01T21:54:32.228Z,9.58
2023-05-01T21:57:36.921Z,9.41
2023-05-01T22:00:43.294Z,9.34
2023-05-01T22:03:47.175Z,9.25
2023-05-01T22:06:51.175Z,9.15
2023-05-01T22:09:55.013Z,8.98
2023-05-01T22:12:59.062Z,8.88
2023-05-01T22:16:04.167Z,8.70
2023-05-01T22:19:07.778Z,8.69
2023-05-01T22:22:12.077Z,8.62
2023-05-01T22:25:16.187Z,8.54
2023-05-01T22:28:20.939Z,8.40
2023-05-01T22:31:24.599Z,8.43
2023-05-01T22:34:28.525Z,8.35
2023-05-01T22:37:40.973Z,8.26
2023-05-01T22:40:45.783Z,8.22
2023-05-01T22:43:48.938Z,8.13
2023-05-01T22:46:52.445Z,8.08
2023-05-01T22:49:55.777Z,8.04
2023-05-01T22:52:59.326Z,7.98
2023-05-01T22:56:02.982Z,8.01
2023-05-01T22:59:07.034Z,7.99
2023-05-01T23:02:13.633Z,7.97
2023-05-01T23:05:17.717Z,7.88
2023-05-01T23:08:20.759Z,7.78
2023-05-01T23:11:32.581Z,7.86
2023-05-01T23:14:45.333Z,7.86
2023-05-01T23:17:48.623Z,7.78
2023-05-01T23:20:52.694Z,7.75
2023-05-01T23:23:56.397Z,7.69
2023-05-01T23:27:00.692Z,7.69
2023-05-01T23:30:05.681Z,7.63
2023-05-01T23:33:11.441Z,7.57
2023-05-01T23:36:15.030Z,7.48
2023-05-01T23:39:18.173Z,7.51
2023-05-01T23:42:22.793Z,7.41
2023-05-01T23:45:26.031Z,7.45
2023-05-01T23:48:29.609Z,7.50
2023-05-01T23:51:33.430Z,7.51
2023-05-01T23:54:36.838Z,7.41
2023-05-01T23:57:39.947Z,7.36
